createdAt,value
2023-01-13T00:00:31.873Z,1003.48
2023-01-13T00:01:31.609Z,1003.52
2023-01-13T00:02:31.670Z,1003.53
2023-01-13T00:03:31.658Z,1003.42
2023-01-13T00:04:31.680Z,1003.41
2023-01-13T00:05:31.597Z,1003.49
2023-01-13T00:06:31.614Z,1003.55
2023-01-13T00:07:31.543Z,1003.43
2023-01-13T00:08:31.599Z,1003.43
2023-01-13T00:09:31.523Z,1003.34
2023-01-13T00:10:31.497Z,1003.20
2023-01-13T00:11:31.486Z,1003.14
2023-01-13T00:12:31.500Z,1003.17
2023-01-13T00:13:31.482Z,1003.25
2023-01-13T00:14:31.439Z,1003.21
2023-01-13T00:15:31.448Z,1003.22
2023-01-13T00:16:31.398Z,1003.23
2023-01-13T00:17:31.435Z,1003.26
2023-01-13T00:18:31.406Z,1003.21
2023-01-13T00:19:31.439Z,1003.26
2023-01-13T00:20:31.437Z,1003.17
2023-01-13T00:21:31.408Z,1003.12
2023-01-13T00:22:31.420Z,1003.16
2023-01-13T00:23:31.366Z,1003.32
2023-01-13T00:24:31.327Z,1003.34
2023-01-13T00:25:31.302Z,1003.32
2023-01-13T00:26:31.339Z,1003.39
2023-01-13T00:27:31.272Z,1003.27
2023-01-13T00:28:31.334Z,1003.32
2023-01-13T00:29:31.263Z,1003.20
2023-01-13T00:30:31.257Z,1003.24
2023-01-13T00:31:31.253Z,1003.30
2023-01-13T00:32:31.255Z,1003.28
2023-01-13T00:33:31.215Z,1003.31
2023-01-13T00:34:31.194Z,1003.29
2023-01-13T00:35:31.292Z,1003.30
2023-01-13T00:36:31.169Z,1003.27
2023-01-13T00:37:31.208Z,1003.42
2023-01-13T00:38:31.182Z,1003.39
2023-01-13T00:39:31.155Z,1003.42
2023-01-13T00:40:31.415Z,1003.39
2023-01-13T00:41:31.098Z,1003.25
2023-01-13T00:42:31.129Z,1003.27
2023-01-13T00:43:31.166Z,1003.37
2023-01-13T00:44:31.076Z,1003.53
2023-01-13T00:45:31.337Z,1003.44
2023-01-13T00:46:32.126Z,1003.37
2023-01-13T00:47:31.066Z,1003.34
2023-01-13T00:48:31.058Z,1003.37
2023-01-13T00:49:31.040Z,1003.29
2023-01-13T00:50:30.986Z,1003.28
2023-01-13T00:51:31.014Z,1003.29
2023-01-13T00:52:30.963Z,1003.35
2023-01-13T00:53:30.937Z,1003.29
2023-01-13T00:54:30.931Z,1003.30
2023-01-13T00:55:30.954Z,1003.42
2023-01-13T00:56:40.468Z,1003.34
2023-01-13T00:57:31.898Z,1003.30
2023-01-13T00:58:31.129Z,1003.31
2023-01-13T00:59:30.885Z,1003.39
2023-01-13T01:00:30.894Z,1003.38
2023-01-13T01:01:30.973Z,1003.18
2023-01-13T01:02:30.901Z,1003.32
2023-01-13T01:03:30.904Z,1003.45
2023-01-13T01:04:30.817Z,1003.41
2023-01-13T01:05:30.795Z,1003.32
2023-01-13T01:06:30.794Z,1003.31
2023-01-13T01:07:30.908Z,1003.31
2023-01-13T01:08:30.755Z,1003.36
2023-01-13T01:09:30.753Z,1003.35
2023-01-13T01:10:30.730Z,1003.29
2023-01-13T01:11:30.714Z,1003.37
2023-01-13T01:12:30.809Z,1003.40
2023-01-13T01:13:30.702Z,1003.30
2023-01-13T01:14:30.702Z,1003.37
2023-01-13T01:15:30.704Z,1003.35
2023-01-13T01:16:30.646Z,1003.34
2023-01-13T01:17:30.610Z,1003.28
2023-01-13T01:18:30.803Z,1003.26
2023-01-13T01:19:30.610Z,1003.12
2023-01-13T01:20:30.612Z,1003.04
2023-01-13T01:21:30.625Z,1003.06
2023-01-13T01:22:30.592Z,1003.12
2023-01-13T01:23:51.569Z,1003.25
2023-01-13T01:24:30.601Z,1003.24
2023-01-13T01:25:30.509Z,1003.23
2023-01-13T01:26:41.684Z,1003.34
2023-01-13T01:27:39.043Z,1003.33
2023-01-13T01:28:30.542Z,1003.45
2023-01-13T01:29:30.593Z,1003.45
2023-01-13T01:30:30.489Z,1003.48
2023-01-13T01:31:30.487Z,1003.49
2023-01-13T01:32:30.453Z,1003.49
2023-01-13T01:33:30.499Z,1003.49
2023-01-13T01:34:30.421Z,1003.45
2023-01-13T01:35:30.457Z,1003.51
2023-01-13T01:36:30.526Z,1003.51
2023-01-13T01:37:30.363Z,1003.48
2023-01-13T01:38:30.337Z,1003.55
2023-01-13T01:39:30.350Z,1003.52
2023-01-13T01:40:30.361Z,1003.47
2023-01-13T01:41:30.327Z,1003.55
2023-01-13T01:42:30.392Z,1003.49
2023-01-13T01:43:30.307Z,1003.51
2023-01-13T01:44:31.036Z,1003.54
2023-01-13T01:45:30.250Z,1003.51
2023-01-13T01:46:30.313Z,1003.48
2023-01-13T01:47:30.277Z,1003.51
2023-01-13T01:48:30.221Z,1003.45
2023-01-13T01:49:30.238Z,1003.52
2023-01-13T01:50:30.234Z,1003.49
2023-01-13T01:51:30.228Z,1003.47
2023-01-13T01:52:30.194Z,1003.52
2023-01-13T01:53:30.137Z,1003.54
2023-01-13T01:54:30.188Z,1003.52
2023-01-13T01:55:30.108Z,1003.55
2023-01-13T01:56:30.142Z,1003.55
2023-01-13T01:57:30.129Z,1003.68
2023-01-13T01:58:30.084Z,1003.72
2023-01-13T01:59:30.124Z,1003.72
2023-01-13T02:00:30.159Z,1003.70
2023-01-13T02:01:30.217Z,1003.69
2023-01-13T02:02:30.137Z,1003.68
2023-01-13T02:03:30.033Z,1003.63
2023-01-13T02:04:30.059Z,1003.56
2023-01-13T02:05:30.078Z,1003.60
2023-01-13T02:06:30.036Z,1003.54
2023-01-13T02:07:29.971Z,1003.56
2023-01-13T02:08:29.952Z,1003.71
2023-01-13T02:09:29.995Z,1003.59
2023-01-13T02:10:30.038Z,1003.66
2023-01-13T02:11:29.942Z,1003.64
2023-01-13T02:12:29.935Z,1003.62
2023-01-13T02:13:29.908Z,1003.66
2023-01-13T02:14:29.899Z,1003.65
2023-01-13T02:15:29.911Z,1003.70
2023-01-13T02:16:29.880Z,1003.68
2023-01-13T02:17:29.882Z,1003.74
2023-01-13T02:18:29.833Z,1003.70
2023-01-13T02:19:29.841Z,1003.66
2023-01-13T02:20:29.804Z,1003.76
2023-01-13T02:21:29.811Z,1003.74
2023-01-13T02:22:29.813Z,1003.68
2023-01-13T02:23:29.770Z,1003.67
2023-01-13T02:24:29.810Z,1003.68
2023-01-13T02:25:29.762Z,1003.60
2023-01-13T02:26:29.771Z,1003.70
2023-01-13T02:27:29.793Z,1003.65
2023-01-13T02:28:29.758Z,1003.64
2023-01-13T02:29:29.766Z,1003.70
2023-01-13T02:30:29.701Z,1003.61
2023-01-13T02:31:29.690Z,1003.69
2023-01-13T02:32:29.700Z,1003.63
2023-01-13T02:33:29.667Z,1003.61
2023-01-13T02:34:29.716Z,1003.59
2023-01-13T02:35:29.643Z,1003.53
2023-01-13T02:36:29.619Z,1003.54
2023-01-13T02:37:37.264Z,1003.52
2023-01-13T02:38:29.647Z,1003.58
2023-01-13T02:39:29.625Z,1003.63
2023-01-13T02:40:29.637Z,1003.65
2023-01-13T02:41:29.645Z,1003.65
2023-01-13T02:42:29.577Z,1003.59
2023-01-13T02:43:29.547Z,1003.55
2023-01-13T02:44:29.603Z,1003.63
2023-01-13T02:45:29.561Z,1003.59
2023-01-13T02:46:29.511Z,1003.57
2023-01-13T02:47:29.517Z,1003.61
2023-01-13T02:48:29.490Z,1003.59
2023-01-13T02:49:29.522Z,1003.60
2023-01-13T02:50:29.454Z,1003.56
2023-01-13T02:51:29.489Z,1003.53
2023-01-13T02:52:29.453Z,1003.44
2023-01-13T02:53:29.553Z,1003.39
2023-01-13T02:54:29.461Z,1003.40
2023-01-13T02:55:29.409Z,1003.49
2023-01-13T02:56:29.396Z,1003.41
2023-01-13T02:57:29.375Z,1003.43
2023-01-13T02:58:29.432Z,1003.51
2023-01-13T02:59:29.371Z,1003.53
2023-01-13T03:00:29.320Z,1003.53
2023-01-13T03:01:29.429Z,1003.49
2023-01-13T03:02:29.311Z,1003.59
2023-01-13T03:03:29.279Z,1003.61
2023-01-13T03:04:29.275Z,1003.57
2023-01-13T03:05:29.247Z,1003.58
2023-01-13T03:06:29.258Z,1003.61
2023-01-13T03:07:29.260Z,1003.61
2023-01-13T03:08:29.221Z,1003.59
2023-01-13T03:09:29.219Z,1003.57
2023-01-13T03:10:29.248Z,1003.51
2023-01-13T03:11:29.167Z,1003.61
2023-01-13T03:12:29.194Z,1003.53
2023-01-13T03:13:29.137Z,1003.49
2023-01-13T03:14:29.167Z,1003.54
2023-01-13T03:15:29.173Z,1003.50
2023-01-13T03:16:29.157Z,1003.45
2023-01-13T03:17:29.095Z,1003.49
2023-01-13T03:18:29.079Z,1003.49
2023-01-13T03:19:29.096Z,1003.47
2023-01-13T03:20:29.110Z,1003.48
2023-01-13T03:21:29.115Z,1003.42
2023-01-13T03:22:29.050Z,1003.51
2023-01-13T03:23:28.998Z,1003.47
2023-01-13T03:24:29.033Z,1003.43
2023-01-13T03:25:29.039Z,1003.48
2023-01-13T03:26:29.324Z,1003.52
2023-01-13T03:27:28.983Z,1003.54
2023-01-13T03:28:29.006Z,1003.56
2023-01-13T03:29:29.019Z,1003.54
2023-01-13T03:30:29.066Z,1003.50
2023-01-13T03:31:28.946Z,1003.50
2023-01-13T03:32:28.936Z,1003.49
2023-01-13T03:33:28.952Z,1003.50
2023-01-13T03:34:31.136Z,1003.44
2023-01-13T03:35:28.934Z,1003.35
2023-01-13T03:36:28.905Z,1003.35
2023-01-13T03:37:28.971Z,1003.30
2023-01-13T03:38:28.864Z,1003.29
2023-01-13T03:39:28.900Z,1003.34
2023-01-13T03:40:28.853Z,1003.34
2023-01-13T03:41:28.812Z,1003.30
2023-01-13T03:42:28.830Z,1003.34
2023-01-13T03:43:28.862Z,1003.29
2023-01-13T03:44:28.791Z,1003.29
2023-01-13T03:45:28.792Z,1003.31
2023-01-13T03:46:28.736Z,1003.35
2023-01-13T03:47:28.781Z,1003.41
2023-01-13T03:48:28.772Z,1003.36
2023-01-13T03:49:28.843Z,1003.35
2023-01-13T03:50:28.794Z,1003.40
2023-01-13T03:51:28.688Z,1003.35
2023-01-13T03:52:28.691Z,1003.37
2023-01-13T03:53:38.396Z,1003.37
2023-01-13T03:54:28.686Z,1003.36
2023-01-13T03:55:28.736Z,1003.30
2023-01-13T03:56:28.637Z,1003.27
2023-01-13T03:57:28.680Z,1003.28
2023-01-13T03:58:28.622Z,1003.33
2023-01-13T03:59:28.588Z,1003.28
2023-01-13T04:00:28.616Z,1003.31
2023-01-13T04:01:28.673Z,1003.36
2023-01-13T04:02:28.598Z,1003.37
2023-01-13T04:03:28.590Z,1003.35
2023-01-13T04:04:28.619Z,1003.27
2023-01-13T04:05:28.538Z,1003.30
2023-01-13T04:06:28.497Z,1003.29
2023-01-13T04:07:28.517Z,1003.29
2023-01-13T04:08:28.488Z,1003.24
2023-01-13T04:09:28.510Z,1003.17
2023-01-13T04:10:28.466Z,1003.26
2023-01-13T04:11:28.434Z,1003.26
2023-01-13T04:12:28.446Z,1003.29
2023-01-13T04:13:28.413Z,1003.37
2023-01-13T04:14:28.450Z,1003.38
2023-01-13T04:15:28.567Z,1003.38
2023-01-13T04:16:28.392Z,1003.33
2023-01-13T04:17:28.375Z,1003.45
2023-01-13T04:18:28.610Z,1003.34
2023-01-13T04:19:28.342Z,1003.35
2023-01-13T04:20:28.392Z,1003.31
2023-01-13T04:21:28.439Z,1003.33
2023-01-13T04:22:28.377Z,1003.35
2023-01-13T04:23:28.345Z,1003.42
2023-01-13T04:24:28.297Z,1003.41
2023-01-13T04:25:28.393Z,1003.37
2023-01-13T04:26:28.282Z,1003.40
2023-01-13T04:27:28.293Z,1003.38
2023-01-13T04:28:28.232Z,1003.34
2023-01-13T04:29:28.306Z,1003.41
2023-01-13T04:30:28.205Z,1003.38
2023-01-13T04:31:28.323Z,1003.45
2023-01-13T04:32:28.289Z,1003.39
2023-01-13T04:33:28.210Z,1003.43
2023-01-13T04:34:38.359Z,1003.37
2023-01-13T04:35:28.211Z,1003.39
2023-01-13T04:36:28.152Z,1003.38
2023-01-13T04:37:28.132Z,1003.41
2023-01-13T04:38:28.289Z,1003.35
2023-01-13T04:39:28.091Z,1003.29
2023-01-13T04:40:28.107Z,1003.30
2023-01-13T04:41:28.063Z,1003.36
2023-01-13T04:42:28.049Z,1003.37
2023-01-13T04:43:28.104Z,1003.39
2023-01-13T04:44:28.051Z,1003.37
2023-01-13T04:45:28.012Z,1003.44
2023-01-13T04:46:28.057Z,1003.49
2023-01-13T04:47:28.041Z,1003.50
2023-01-13T04:48:28.083Z,1003.51
2023-01-13T04:49:28.018Z,1003.49
2023-01-13T04:50:27.977Z,1003.38
2023-01-13T04:51:27.939Z,1003.43
2023-01-13T04:52:27.922Z,1003.43
2023-01-13T04:53:27.936Z,1003.49
2023-01-13T04:54:27.903Z,1003.53
2023-01-13T04:55:27.941Z,1003.56
2023-01-13T04:56:27.996Z,1003.57
2023-01-13T04:57:27.969Z,1003.59
2023-01-13T04:58:27.891Z,1003.61
2023-01-13T04:59:27.852Z,1003.56
2023-01-13T05:00:27.824Z,1003.61
2023-01-13T05:01:27.977Z,1003.63
2023-01-13T05:02:27.965Z,1003.49
2023-01-13T05:03:39.018Z,1003.51
2023-01-13T05:04:35.666Z,1003.59
2023-01-13T05:05:27.831Z,1003.53
2023-01-13T05:06:27.827Z,1003.45
2023-01-13T05:07:27.826Z,1003.41
2023-01-13T05:08:27.751Z,1003.40
2023-01-13T05:09:27.786Z,1003.31
2023-01-13T05:10:27.720Z,1003.33
2023-01-13T05:11:27.737Z,1003.27
2023-01-13T05:12:27.744Z,1003.33
2023-01-13T05:13:27.780Z,1003.28
2023-01-13T05:14:27.691Z,1003.36
2023-01-13T05:15:28.038Z,1003.24
2023-01-13T05:16:27.709Z,1003.25
2023-01-13T05:17:27.645Z,1003.29
2023-01-13T05:18:27.699Z,1003.31
2023-01-13T05:19:27.624Z,1003.37
2023-01-13T05:20:27.604Z,1003.36
2023-01-13T05:21:27.640Z,1003.28
2023-01-13T05:22:27.581Z,1003.33
2023-01-13T05:23:27.613Z,1003.42
2023-01-13T05:24:27.624Z,1003.49
2023-01-13T05:25:27.537Z,1003.58
2023-01-13T05:26:27.541Z,1003.52
2023-01-13T05:27:27.531Z,1003.45
2023-01-13T05:28:27.509Z,1003.49
2023-01-13T05:29:27.578Z,1003.49
2023-01-13T05:30:27.476Z,1003.49
2023-01-13T05:31:27.513Z,1003.47
2023-01-13T05:32:27.501Z,1003.48
2023-01-13T05:33:27.474Z,1003.49
2023-01-13T05:34:27.467Z,1003.57
2023-01-13T05:35:27.477Z,1003.52
2023-01-13T05:36:27.515Z,1003.51
2023-01-13T05:37:27.450Z,1003.43
2023-01-13T05:38:27.535Z,1003.50
2023-01-13T05:39:27.382Z,1003.55
2023-01-13T05:40:27.465Z,1003.51
2023-01-13T05:41:27.359Z,1003.51
2023-01-13T05:42:27.379Z,1003.50
2023-01-13T05:43:27.455Z,1003.45
2023-01-13T05:44:27.439Z,1003.48
2023-01-13T05:45:27.367Z,1003.45
2023-01-13T05:46:27.415Z,1003.56
2023-01-13T05:47:27.323Z,1003.54
2023-01-13T05:48:27.341Z,1003.50
2023-01-13T05:49:27.512Z,1003.48
2023-01-13T05:50:27.264Z,1003.47
2023-01-13T05:51:27.313Z,1003.48
2023-01-13T05:52:27.314Z,1003.43
2023-01-13T05:53:27.282Z,1003.45
2023-01-13T05:54:27.230Z,1003.48
2023-01-13T05:55:27.252Z,1003.48
2023-01-13T05:56:27.171Z,1003.49
2023-01-13T05:57:27.365Z,1003.48
2023-01-13T05:58:27.318Z,1003.47
2023-01-13T05:59:27.160Z,1003.53
2023-01-13T06:00:27.156Z,1003.52
2023-01-13T06:01:27.178Z,1003.50
2023-01-13T06:02:27.127Z,1003.56
2023-01-13T06:03:27.123Z,1003.54
2023-01-13T06:04:27.211Z,1003.57
2023-01-13T06:05:27.100Z,1003.58
2023-01-13T06:06:27.076Z,1003.57
2023-01-13T06:07:27.066Z,1003.65
2023-01-13T06:08:27.020Z,1003.63
2023-01-13T06:09:27.067Z,1003.64
2023-01-13T06:10:26.986Z,1003.72
2023-01-13T06:11:27.006Z,1003.61
2023-01-13T06:12:26.977Z,1003.55
2023-01-13T06:13:27.011Z,1003.63
2023-01-13T06:14:27.060Z,1003.60
2023-01-13T06:15:26.988Z,1003.64
2023-01-13T06:16:26.982Z,1003.64
2023-01-13T06:17:26.945Z,1003.64
2023-01-13T06:18:26.936Z,1003.67
2023-01-13T06:19:26.902Z,1003.70
2023-01-13T06:20:26.880Z,1003.63
2023-01-13T06:21:26.921Z,1003.67
2023-01-13T06:22:26.868Z,1003.69
2023-01-13T06:23:26.905Z,1003.71
2023-01-13T06:24:26.837Z,1003.75
2023-01-13T06:25:26.870Z,1003.73
2023-01-13T06:26:26.811Z,1003.70
2023-01-13T06:27:26.781Z,1003.73
2023-01-13T06:28:26.776Z,1003.67
2023-01-13T06:29:26.794Z,1003.67
2023-01-13T06:30:26.742Z,1003.67
2023-01-13T06:31:26.797Z,1003.67
2023-01-13T06:32:26.744Z,1003.67
2023-01-13T06:33:26.706Z,1003.70
2023-01-13T06:34:26.717Z,1003.69
2023-01-13T06:35:26.712Z,1003.66
2023-01-13T06:36:26.675Z,1003.69
2023-01-13T06:37:26.672Z,1003.68
2023-01-13T06:38:26.656Z,1003.76
2023-01-13T06:39:26.643Z,1003.73
2023-01-13T06:40:26.643Z,1003.77
2023-01-13T06:41:26.619Z,1003.80
2023-01-13T06:42:36.677Z,1003.78
2023-01-13T06:43:26.618Z,1003.79
2023-01-13T06:44:26.864Z,1003.82
2023-01-13T06:45:26.605Z,1003.76
2023-01-13T06:46:26.595Z,1003.80
2023-01-13T06:47:26.567Z,1003.78
2023-01-13T06:48:26.542Z,1003.81
2023-01-13T06:49:26.539Z,1003.86
2023-01-13T06:50:26.504Z,1003.90
2023-01-13T06:51:26.522Z,1003.81
2023-01-13T06:52:26.483Z,1003.80
2023-01-13T06:53:26.456Z,1003.81
2023-01-13T06:54:27.821Z,1003.84
2023-01-13T06:55:26.459Z,1003.84
2023-01-13T06:56:26.456Z,1003.76
2023-01-13T06:57:26.447Z,1003.81
2023-01-13T06:58:26.418Z,1003.92
2023-01-13T06:59:26.444Z,1003.73
2023-01-13T07:00:26.354Z,1003.85
2023-01-13T07:01:26.533Z,1003.82
2023-01-13T07:02:26.569Z,1003.86
2023-01-13T07:03:26.455Z,1003.88
2023-01-13T07:04:26.412Z,1003.89
2023-01-13T07:05:26.388Z,1003.85
2023-01-13T07:06:26.333Z,1003.83
2023-01-13T07:07:26.304Z,1003.85
2023-01-13T07:08:26.292Z,1003.92
2023-01-13T07:09:26.244Z,1003.87
2023-01-13T07:10:26.241Z,1003.87
2023-01-13T07:11:26.255Z,1003.86
2023-01-13T07:12:26.282Z,1003.88
2023-01-13T07:13:26.228Z,1003.92
2023-01-13T07:14:26.323Z,1003.91
2023-01-13T07:15:26.418Z,1003.93
2023-01-13T07:16:26.178Z,1003.97
2023-01-13T07:17:26.194Z,1003.89
2023-01-13T07:18:26.209Z,1003.86
2023-01-13T07:19:26.242Z,1003.89
2023-01-13T07:20:26.285Z,1003.91
2023-01-13T07:21:26.188Z,1003.93
2023-01-13T07:22:26.282Z,1003.89
2023-01-13T07:23:26.205Z,1003.87
2023-01-13T07:24:26.426Z,1003.86
2023-01-13T07:25:26.108Z,1003.93
2023-01-13T07:26:26.098Z,1003.92
2023-01-13T07:27:33.672Z,1003.84
2023-01-13T07:28:26.015Z,1003.84
2023-01-13T07:29:26.052Z,1003.86
2023-01-13T07:30:26.014Z,1003.83
2023-01-13T07:31:26.038Z,1003.83
2023-01-13T07:32:26.011Z,1003.90
2023-01-13T07:33:25.969Z,1003.92
2023-01-13T07:34:26.059Z,1003.86
2023-01-13T07:35:25.978Z,1003.89
2023-01-13T07:36:26.029Z,1003.86
2023-01-13T07:37:25.932Z,1003.88
2023-01-13T07:38:25.917Z,1003.91
2023-01-13T07:39:25.894Z,1003.93
2023-01-13T07:40:25.901Z,1003.87
2023-01-13T07:41:25.943Z,1003.84
2023-01-13T07:42:25.881Z,1003.91
2023-01-13T07:43:25.836Z,1003.83
2023-01-13T07:44:25.883Z,1003.79
2023-01-13T07:45:25.831Z,1003.93
2023-01-13T07:46:25.806Z,1003.84
2023-01-13T07:47:25.781Z,1004.03
2023-01-13T07:48:25.774Z,1004.02
2023-01-13T07:49:25.784Z,1003.97
2023-01-13T07:50:25.775Z,1003.95
2023-01-13T07:51:25.779Z,1003.93
2023-01-13T07:52:25.741Z,1004.02
2023-01-13T07:53:25.747Z,1004.09
2023-01-13T07:54:39.677Z,1004.10
2023-01-13T07:55:26.711Z,1004.08
2023-01-13T07:56:25.784Z,1004.08
2023-01-13T07:57:25.673Z,1004.13
2023-01-13T07:58:25.744Z,1004.13
2023-01-13T07:59:25.649Z,1004.08
2023-01-13T08:00:25.635Z,1004.15
2023-01-13T08:01:25.828Z,1004.21
2023-01-13T08:02:25.777Z,1004.06
2023-01-13T08:03:25.721Z,1004.06
2023-01-13T08:04:25.608Z,1004.14
2023-01-13T08:05:25.646Z,1004.08
2023-01-13T08:06:25.610Z,1004.12
2023-01-13T08:07:25.589Z,1004.17
2023-01-13T08:08:25.564Z,1004.15
2023-01-13T08:09:25.522Z,1004.19
2023-01-13T08:10:26.454Z,1004.20
2023-01-13T08:11:25.510Z,1004.23
2023-01-13T08:12:25.521Z,1004.21
2023-01-13T08:13:25.579Z,1004.07
2023-01-13T08:14:25.464Z,1004.31
2023-01-13T08:15:25.511Z,1004.24
2023-01-13T08:16:25.531Z,1004.22
2023-01-13T08:17:25.433Z,1004.31
2023-01-13T08:18:25.489Z,1004.36
2023-01-13T08:19:25.404Z,1004.33
2023-01-13T08:20:25.475Z,1004.25
2023-01-13T08:21:25.381Z,1004.33
2023-01-13T08:22:25.393Z,1004.35
2023-01-13T08:23:25.370Z,1004.39
2023-01-13T08:24:25.415Z,1004.33
2023-01-13T08:25:25.341Z,1004.39
2023-01-13T08:26:25.359Z,1004.44
2023-01-13T08:27:25.342Z,1004.42
2023-01-13T08:28:25.280Z,1004.46
2023-01-13T08:29:25.292Z,1004.35
2023-01-13T08:30:25.388Z,1004.40
2023-01-13T08:31:25.311Z,1004.41
2023-01-13T08:32:25.257Z,1004.49
2023-01-13T08:33:25.234Z,1004.40
2023-01-13T08:34:25.237Z,1004.38
2023-01-13T08:35:25.245Z,1004.34
2023-01-13T08:36:25.250Z,1004.24
2023-01-13T08:37:25.199Z,1004.40
2023-01-13T08:38:25.165Z,1004.43
2023-01-13T08:39:25.188Z,1004.30
2023-01-13T08:40:25.207Z,1004.40
2023-01-13T08:41:25.151Z,1004.34
2023-01-13T08:42:25.149Z,1004.48
2023-01-13T08:43:25.134Z,1004.40
2023-01-13T08:44:25.165Z,1004.43
2023-01-13T08:45:25.104Z,1004.46
2023-01-13T08:46:25.134Z,1004.40
2023-01-13T08:47:25.081Z,1004.48
2023-01-13T08:48:25.067Z,1004.49
2023-01-13T08:49:25.058Z,1004.47
2023-01-13T08:50:25.089Z,1004.56
2023-01-13T08:51:25.042Z,1004.69
2023-01-13T08:52:25.008Z,1004.59
2023-01-13T08:53:24.988Z,1004.59
2023-01-13T08:54:24.992Z,1004.66
2023-01-13T08:55:24.999Z,1004.70
2023-01-13T08:56:24.961Z,1004.74
2023-01-13T08:57:25.026Z,1004.78
2023-01-13T08:58:24.970Z,1004.84
2023-01-13T08:59:24.951Z,1004.78
2023-01-13T09:00:24.959Z,1004.80
2023-01-13T09:01:25.055Z,1004.79
2023-01-13T09:02:24.924Z,1004.80
2023-01-13T09:03:24.913Z,1004.82
2023-01-13T09:04:24.955Z,1004.92
2023-01-13T09:05:24.846Z,1004.80
2023-01-13T09:06:24.842Z,1004.82
2023-01-13T09:07:24.835Z,1004.78
2023-01-13T09:08:24.874Z,1004.77
2023-01-13T09:09:24.796Z,1004.70
2023-01-13T09:10:24.849Z,1004.72
2023-01-13T09:11:24.785Z,1004.77
2023-01-13T09:12:24.784Z,1004.67
2023-01-13T09:13:24.757Z,1004.79
2023-01-13T09:14:24.739Z,1004.76
2023-01-13T09:15:24.713Z,1004.65
2023-01-13T09:16:24.729Z,1004.74
2023-01-13T09:17:24.877Z,1004.65
2023-01-13T09:18:24.884Z,1004.66
2023-01-13T09:19:24.801Z,1004.65
2023-01-13T09:20:24.665Z,1004.77
2023-01-13T09:21:24.645Z,1004.75
2023-01-13T09:22:24.641Z,1004.70
2023-01-13T09:23:24.655Z,1004.79
2023-01-13T09:24:24.615Z,1004.76
2023-01-13T09:25:24.598Z,1004.85
2023-01-13T09:26:24.659Z,1004.78
2023-01-13T09:27:24.563Z,1004.79
2023-01-13T09:28:24.567Z,1004.76
2023-01-13T09:29:24.589Z,1004.78
2023-01-13T09:30:24.541Z,1004.83
2023-01-13T09:31:24.587Z,1004.76
2023-01-13T09:32:24.540Z,1004.78
2023-01-13T09:33:24.552Z,1004.79
2023-01-13T09:34:24.522Z,1004.74
2023-01-13T09:35:24.541Z,1004.78
2023-01-13T09:36:24.469Z,1004.78
2023-01-13T09:37:24.458Z,1004.75
2023-01-13T09:38:24.443Z,1004.75
2023-01-13T09:39:24.402Z,1004.78
2023-01-13T09:40:24.413Z,1004.81
2023-01-13T09:41:24.419Z,1004.86
2023-01-13T09:42:24.397Z,1004.89
2023-01-13T09:43:24.364Z,1004.86
2023-01-13T09:44:24.428Z,1004.83
2023-01-13T09:45:24.370Z,1004.90
2023-01-13T09:46:24.420Z,1004.90
2023-01-13T09:47:24.302Z,1004.94
2023-01-13T09:48:24.418Z,1004.92
2023-01-13T09:49:24.357Z,1004.94
2023-01-13T09:50:24.273Z,1004.94
2023-01-13T09:51:24.333Z,1004.96
2023-01-13T09:52:26.826Z,1004.94
2023-01-13T09:53:24.237Z,1005.07
2023-01-13T09:54:24.275Z,1004.87
2023-01-13T09:55:24.231Z,1005.01
2023-01-13T09:56:24.294Z,1005.12
2023-01-13T09:57:24.235Z,1005.01
2023-01-13T09:58:24.200Z,1005.05
2023-01-13T09:59:24.277Z,1005.05
2023-01-13T10:00:24.148Z,1004.90
2023-01-13T10:01:24.210Z,1005.08
2023-01-13T10:02:24.169Z,1005.02
2023-01-13T10:03:24.132Z,1005.04
2023-01-13T10:04:24.152Z,1004.96
2023-01-13T10:05:24.127Z,1004.98
2023-01-13T10:06:24.112Z,1005.11
2023-01-13T10:07:24.050Z,1005.13
2023-01-13T10:08:24.140Z,1004.86
2023-01-13T10:09:24.039Z,1005.01
2023-01-13T10:10:24.028Z,1004.98
2023-01-13T10:11:24.087Z,1005.09
2023-01-13T10:12:24.169Z,1005.05
2023-01-13T10:13:23.995Z,1004.98
2023-01-13T10:14:23.978Z,1005.06
2023-01-13T10:15:23.961Z,1005.11
2023-01-13T10:16:24.058Z,1005.13
2023-01-13T10:17:23.946Z,1005.06
2023-01-13T10:18:24.006Z,1005.10
2023-01-13T10:19:23.896Z,1005.12
2023-01-13T10:20:23.921Z,1005.14
2023-01-13T10:21:23.892Z,1005.04
2023-01-13T10:22:23.868Z,1005.09
2023-01-13T10:23:23.900Z,1005.17
2023-01-13T10:24:23.868Z,1005.20
2023-01-13T10:25:23.845Z,1005.13
2023-01-13T10:26:23.935Z,1005.14
2023-01-13T10:27:23.808Z,1005.16
2023-01-13T10:28:23.831Z,1005.16
2023-01-13T10:29:23.867Z,1005.22
2023-01-13T10:30:23.758Z,1005.17
2023-01-13T10:31:23.872Z,1005.17
2023-01-13T10:32:23.754Z,1005.09
2023-01-13T10:33:24.200Z,1005.19
2023-01-13T10:34:23.717Z,1005.14
2023-01-13T10:35:23.711Z,1005.16
2023-01-13T10:36:23.711Z,1005.14
2023-01-13T10:37:23.666Z,1005.16
2023-01-13T10:38:23.666Z,1005.09
2023-01-13T10:39:23.742Z,1005.08
2023-01-13T10:40:23.625Z,1005.03
2023-01-13T10:41:23.610Z,1005.03
2023-01-13T10:42:23.616Z,1004.90
2023-01-13T10:43:23.604Z,1005.04
2023-01-13T10:44:23.572Z,1005.01
2023-01-13T10:45:23.572Z,1005.03
2023-01-13T10:46:23.553Z,1005.10
2023-01-13T10:47:23.533Z,1005.04
2023-01-13T10:48:23.560Z,1005.06
2023-01-13T10:49:23.540Z,1005.00
2023-01-13T10:50:23.495Z,1005.19
2023-01-13T10:51:23.543Z,1005.11
2023-01-13T10:52:23.519Z,1005.10
2023-01-13T10:53:23.451Z,1005.10
2023-01-13T10:54:23.449Z,1005.13
2023-01-13T10:55:23.429Z,1005.15
2023-01-13T10:56:23.435Z,1005.20
2023-01-13T10:57:23.455Z,1005.09
2023-01-13T10:58:23.409Z,1005.03
2023-01-13T10:59:23.392Z,1005.12
2023-01-13T11:00:23.337Z,1005.15
2023-01-13T11:01:23.478Z,1005.21
2023-01-13T11:02:26.547Z,1005.16
2023-01-13T11:03:24.204Z,1005.05
2023-01-13T11:04:24.269Z,1005.04
2023-01-13T11:05:23.276Z,1005.04
2023-01-13T11:06:23.273Z,1005.09
2023-01-13T11:07:23.268Z,1005.15
2023-01-13T11:08:23.250Z,1005.16
2023-01-13T11:09:23.228Z,1005.10
2023-01-13T11:10:23.213Z,1005.14
2023-01-13T11:11:23.191Z,1005.08
2023-01-13T11:12:23.208Z,1005.00
2023-01-13T11:13:23.254Z,1005.19
2023-01-13T11:14:23.170Z,1005.07
2023-01-13T11:15:23.149Z,1005.18
2023-01-13T11:16:23.160Z,1005.14
2023-01-13T11:17:23.164Z,1005.18
2023-01-13T11:18:23.116Z,1005.21
2023-01-13T11:19:23.110Z,1005.02
2023-01-13T11:20:23.069Z,1005.22
2023-01-13T11:21:23.056Z,1005.27
2023-01-13T11:22:23.061Z,1005.20
2023-01-13T11:23:23.069Z,1005.04
2023-01-13T11:24:23.016Z,1005.16
2023-01-13T11:25:23.070Z,1005.19
2023-01-13T11:26:23.044Z,1005.21
2023-01-13T11:27:22.979Z,1005.20
2023-01-13T11:28:22.969Z,1005.30
2023-01-13T11:29:22.963Z,1005.35
2023-01-13T11:30:22.946Z,1005.39
2023-01-13T11:31:22.931Z,1005.36
2023-01-13T11:32:22.909Z,1005.34
2023-01-13T11:33:22.905Z,1005.35
2023-01-13T11:34:22.912Z,1005.56
2023-01-13T11:35:22.897Z,1005.38
2023-01-13T11:36:22.904Z,1005.40
2023-01-13T11:37:22.878Z,1005.45
2023-01-13T11:38:22.879Z,1005.47
2023-01-13T11:39:22.839Z,1005.42
2023-01-13T11:40:22.802Z,1005.39
2023-01-13T11:41:22.838Z,1005.28
2023-01-13T11:42:22.845Z,1005.38
2023-01-13T11:43:22.772Z,1005.31
2023-01-13T11:44:22.754Z,1005.40
2023-01-13T11:45:22.762Z,1005.39
2023-01-13T11:46:22.806Z,1005.31
2023-01-13T11:47:22.724Z,1005.37
2023-01-13T11:48:22.687Z,1005.39
2023-01-13T11:49:22.704Z,1005.32
2023-01-13T11:50:22.694Z,1005.39
2023-01-13T11:51:22.690Z,1005.32
2023-01-13T11:52:22.650Z,1005.46
2023-01-13T11:53:22.661Z,1005.41
2023-01-13T11:54:22.636Z,1005.31
2023-01-13T11:55:22.953Z,1005.46
2023-01-13T11:56:22.603Z,1005.36
2023-01-13T11:57:22.597Z,1005.44
2023-01-13T11:58:22.567Z,1005.45
2023-01-13T11:59:22.575Z,1005.61
2023-01-13T12:00:22.548Z,1005.48
2023-01-13T12:01:23.444Z,1005.63
2023-01-13T12:02:22.550Z,1005.54
2023-01-13T12:03:22.576Z,1005.56
2023-01-13T12:04:22.464Z,1005.58
2023-01-13T12:05:22.504Z,1005.64